createdAt,value
2023-04-19T00:00:31.516Z,91.85
2023-04-19T00:01:31.486Z,92.84
2023-04-19T00:02:31.580Z,93.31
2023-04-19T00:03:31.598Z,92.78
2023-04-19T00:04:31.716Z,92.88
2023-04-19T00:05:31.662Z,94.89
2023-04-19T00:06:31.521Z,93.06
2023-04-19T00:07:31.585Z,93.50
2023-04-19T00:08:31.638Z,92.67
2023-04-19T00:09:31.689Z,93.59
2023-04-19T00:10:31.757Z,92.12
2023-04-19T00:11:31.722Z,92.01
2023-04-19T00:12:31.692Z,91.56
2023-04-19T00:13:31.699Z,92.94
2023-04-19T00:14:31.719Z,93.49
2023-04-19T00:15:31.752Z,93.08
2023-04-19T00:16:31.857Z,92.22
2023-04-19T00:17:31.846Z,91.85
2023-04-19T00:18:31.798Z,91.50
2023-04-19T00:19:31.794Z,91.40
2023-04-19T00:20:31.837Z,92.32
2023-04-19T00:21:31.885Z,90.21
2023-04-19T00:22:31.948Z,91.36
2023-04-19T00:23:32.026Z,92.25
2023-04-19T00:24:31.978Z,90.94
2023-04-19T00:25:31.988Z,91.59
2023-04-19T00:26:31.944Z,91.17
2023-04-19T00:27:31.943Z,90.38
2023-04-19T00:28:31.905Z,90.50
2023-04-19T00:29:31.886Z,90.86
2023-04-19T00:30:32.009Z,90.44
2023-04-19T00:31:32.051Z,92.25
2023-04-19T00:32:32.111Z,90.08
2023-04-19T00:33:32.109Z,92.38
2023-04-19T00:34:32.107Z,89.52
2023-04-19T00:35:32.100Z,89.64
2023-04-19T00:36:32.099Z,90.32
2023-04-19T00:37:32.106Z,89.36
2023-04-19T00:38:32.135Z,90.77
2023-04-19T00:39:32.158Z,90.65
2023-04-19T00:40:32.183Z,89.51
2023-04-19T00:41:32.215Z,89.98
2023-04-19T00:42:32.237Z,91.27
2023-04-19T00:43:32.262Z,90.96
2023-04-19T00:44:32.266Z,90.52
2023-04-19T00:45:32.315Z,89.93
2023-04-19T00:46:32.429Z,88.60
2023-04-19T00:47:32.452Z,88.90
2023-04-19T00:48:32.487Z,90.62
2023-04-19T00:49:32.553Z,90.95
2023-04-19T00:50:32.666Z,90.44
2023-04-19T00:51:32.665Z,89.67
2023-04-19T00:52:32.656Z,90.26
2023-04-19T00:53:32.670Z,87.92
2023-04-19T00:54:32.672Z,90.57
2023-04-19T00:55:32.691Z,90.46
2023-04-19T00:56:32.726Z,90.65
2023-04-19T00:57:32.731Z,89.77
2023-04-19T00:58:32.755Z,89.28
2023-04-19T00:59:32.727Z,89.40
2023-04-19T01:00:32.724Z,89.80
2023-04-19T01:01:32.857Z,89.39
2023-04-19T01:02:32.910Z,89.96
2023-04-19T01:03:33.126Z,88.86
2023-04-19T01:04:33.021Z,89.63
2023-04-19T01:05:32.910Z,88.60
2023-04-19T01:06:32.875Z,87.06
2023-04-19T01:07:32.849Z,88.72
2023-04-19T01:08:32.834Z,87.01
2023-04-19T01:09:32.804Z,88.81
2023-04-19T01:10:32.784Z,88.22
2023-04-19T01:11:32.783Z,89.07
2023-04-19T01:12:32.762Z,88.78
2023-04-19T01:13:32.762Z,87.31
2023-04-19T01:14:32.748Z,88.09
2023-04-19T01:15:32.736Z,89.36
2023-04-19T01:16:32.734Z,89.05
2023-04-19T01:17:32.742Z,88.58
2023-04-19T01:18:32.779Z,87.79
2023-04-19T01:19:32.812Z,88.13
2023-04-19T01:20:32.793Z,89.06
2023-04-19T01:21:32.774Z,87.65
2023-04-19T01:22:32.762Z,87.66
2023-04-19T01:23:32.747Z,87.15
2023-04-19T01:24:32.727Z,88.78
2023-04-19T01:25:32.690Z,86.54
2023-04-19T01:26:32.753Z,89.84
2023-04-19T01:27:32.793Z,88.47
2023-04-19T01:28:32.860Z,87.99
2023-04-19T01:29:32.921Z,87.89
2023-04-19T01:30:32.989Z,85.80
2023-04-19T01:31:33.026Z,87.08
2023-04-19T01:32:33.101Z,86.65
2023-04-19T01:33:33.129Z,88.14
2023-04-19T01:34:33.167Z,86.34
2023-04-19T01:35:33.219Z,86.77
2023-04-19T01:36:33.285Z,88.07
2023-04-19T01:37:33.331Z,86.34
2023-04-19T01:38:33.325Z,87.25
2023-04-19T01:39:33.340Z,87.06
2023-04-19T01:40:33.310Z,88.00
2023-04-19T01:41:33.282Z,87.90
2023-04-19T01:42:33.256Z,87.27
2023-04-19T01:43:33.250Z,86.70
2023-04-19T01:44:33.230Z,86.36
2023-04-19T01:45:33.282Z,86.88
2023-04-19T01:46:33.315Z,87.01
2023-04-19T01:47:33.263Z,87.05
2023-04-19T01:48:33.218Z,85.23
2023-04-19T01:49:33.225Z,87.76
2023-04-19T01:50:33.215Z,85.90
2023-04-19T01:51:33.227Z,87.23
2023-04-19T01:52:33.233Z,86.36
2023-04-19T01:53:33.260Z,85.86
2023-04-19T01:54:33.283Z,86.91
2023-04-19T01:55:33.282Z,86.16
2023-04-19T01:56:33.330Z,87.26
2023-04-19T01:57:33.268Z,85.66
2023-04-19T01:58:33.282Z,85.64
2023-04-19T01:59:33.303Z,85.94
2023-04-19T02:00:33.345Z,86.39
2023-04-19T02:01:33.367Z,85.86
2023-04-19T02:02:33.544Z,86.26
2023-04-19T02:03:33.602Z,85.87
2023-04-19T02:04:33.464Z,86.67
2023-04-19T02:05:33.530Z,85.75
2023-04-19T02:06:33.539Z,84.97
2023-04-19T02:07:33.579Z,85.92
2023-04-19T02:08:33.615Z,86.47
2023-04-19T02:09:33.666Z,84.49
2023-04-19T02:10:33.678Z,86.31
2023-04-19T02:11:33.736Z,85.15
2023-04-19T02:12:33.775Z,86.42
2023-04-19T02:13:33.818Z,84.44
2023-04-19T02:14:33.830Z,85.98
2023-04-19T02:15:33.857Z,86.88
2023-04-19T02:16:35.814Z,84.89
2023-04-19T02:17:33.957Z,87.74
2023-04-19T02:18:33.965Z,85.72
2023-04-19T02:19:34.004Z,84.73
2023-04-19T02:20:34.049Z,85.30
2023-04-19T02:21:34.084Z,84.49
2023-04-19T02:22:34.128Z,85.49
2023-04-19T02:23:34.191Z,85.63
2023-04-19T02:24:34.204Z,84.65
2023-04-19T02:25:34.265Z,86.00
2023-04-19T02:26:34.286Z,85.00
2023-04-19T02:27:34.343Z,86.20
2023-04-19T02:28:34.394Z,86.86
2023-04-19T02:29:34.387Z,84.97
2023-04-19T02:30:34.402Z,83.91
2023-04-19T02:31:34.469Z,86.63
2023-04-19T02:32:34.482Z,86.22
2023-04-19T02:33:34.494Z,80.11
2023-04-19T02:34:34.522Z,84.38
2023-04-19T02:35:34.559Z,84.59
2023-04-19T02:36:34.601Z,84.25
2023-04-19T02:37:34.636Z,85.52
2023-04-19T02:38:34.685Z,84.33
2023-04-19T02:39:34.686Z,84.26
2023-04-19T02:40:34.697Z,84.98
2023-04-19T02:41:34.755Z,85.20
2023-04-19T02:42:34.786Z,85.64
2023-04-19T02:43:34.818Z,85.34
2023-04-19T02:44:34.867Z,85.17
2023-04-19T02:45:34.911Z,82.73
2023-04-19T02:46:35.018Z,85.96
2023-04-19T02:47:34.979Z,83.29
2023-04-19T02:48:35.012Z,84.23
2023-04-19T02:49:35.058Z,84.92
2023-04-19T02:50:35.082Z,85.98
2023-04-19T02:51:35.100Z,83.76
2023-04-19T02:52:35.929Z,84.04
2023-04-19T02:53:35.154Z,84.33
2023-04-19T02:54:35.236Z,82.42
2023-04-19T02:55:35.268Z,83.19
2023-04-19T02:56:35.271Z,82.18
2023-04-19T02:57:35.349Z,85.11
2023-04-19T02:58:35.313Z,84.91
2023-04-19T02:59:35.357Z,83.45
2023-04-19T03:00:35.361Z,82.58
2023-04-19T03:01:35.428Z,83.54
2023-04-19T03:02:35.532Z,82.45
2023-04-19T03:03:35.528Z,82.34
2023-04-19T03:04:35.487Z,85.12
2023-04-19T03:05:35.469Z,82.42
2023-04-19T03:06:35.483Z,83.64
2023-04-19T03:07:35.528Z,83.76
2023-04-19T03:08:35.578Z,84.56
2023-04-19T03:09:35.635Z,84.95
2023-04-19T03:10:35.646Z,84.10
2023-04-19T03:11:35.665Z,82.39
2023-04-19T03:12:35.704Z,83.03
2023-04-19T03:13:35.741Z,82.63
2023-04-19T03:14:35.803Z,84.47
2023-04-19T03:15:35.836Z,82.89
2023-04-19T03:16:35.834Z,81.55
2023-04-19T03:17:35.945Z,84.66
2023-04-19T03:18:35.888Z,82.98
2023-04-19T03:19:35.939Z,83.03
2023-04-19T03:20:35.956Z,82.34
2023-04-19T03:21:35.952Z,81.43
2023-04-19T03:22:35.923Z,81.40
2023-04-19T03:23:35.909Z,80.37
2023-04-19T03:24:37.957Z,81.35
2023-04-19T03:25:35.937Z,81.38
2023-04-19T03:26:35.914Z,81.18
2023-04-19T03:27:35.955Z,81.31
2023-04-19T03:28:35.925Z,84.74
2023-04-19T03:29:35.899Z,82.00
2023-04-19T03:30:35.922Z,81.03
2023-04-19T03:31:35.894Z,80.80
2023-04-19T03:32:35.889Z,80.42
2023-04-19T03:33:35.874Z,80.83
2023-04-19T03:34:35.856Z,80.32
2023-04-19T03:35:35.897Z,80.97
2023-04-19T03:36:35.956Z,80.85
2023-04-19T03:37:35.976Z,78.84
2023-04-19T03:38:36.028Z,81.14
2023-04-19T03:39:35.973Z,79.38
2023-04-19T03:40:35.951Z,79.34
2023-04-19T03:41:35.935Z,81.39
2023-04-19T03:42:35.957Z,80.41
2023-04-19T03:43:35.881Z,79.15
2023-04-19T03:44:35.925Z,79.96
2023-04-19T03:45:35.979Z,80.76
2023-04-19T03:46:36.034Z,78.45
2023-04-19T03:47:36.090Z,81.19
2023-04-19T03:48:36.011Z,78.75
2023-04-19T03:49:36.029Z,77.75
2023-04-19T03:50:36.069Z,77.87
2023-04-19T03:51:36.094Z,78.82
2023-04-19T03:52:36.121Z,79.32
2023-04-19T03:53:36.167Z,79.42
2023-04-19T03:54:36.162Z,79.49
2023-04-19T03:55:36.158Z,79.27
2023-04-19T03:56:36.155Z,79.93
2023-04-19T03:57:36.210Z,80.10
2023-04-19T03:58:36.253Z,79.88
2023-04-19T03:59:36.304Z,78.79
2023-04-19T04:00:36.304Z,76.88
2023-04-19T04:01:36.339Z,78.44
2023-04-19T04:02:36.361Z,77.86
2023-04-19T04:03:36.450Z,80.67
2023-04-19T04:04:36.466Z,78.00
2023-04-19T04:05:36.340Z,78.40
2023-04-19T04:06:36.243Z,79.14
2023-04-19T04:07:36.245Z,79.23
2023-04-19T04:08:36.220Z,75.63
2023-04-19T04:09:36.209Z,77.08
2023-04-19T04:10:36.190Z,77.32
2023-04-19T04:11:36.255Z,77.91
2023-04-19T04:12:36.317Z,79.04
2023-04-19T04:13:36.364Z,74.80
2023-04-19T04:14:36.403Z,78.71
2023-04-19T04:15:36.448Z,77.46
2023-04-19T04:16:36.557Z,78.23
2023-04-19T04:17:36.507Z,75.81
2023-04-19T04:18:36.519Z,76.19
2023-04-19T04:19:36.537Z,76.27
2023-04-19T04:20:36.565Z,77.17
2023-04-19T04:21:36.583Z,76.25
2023-04-19T04:22:36.615Z,77.00
2023-04-19T04:23:36.654Z,75.21
2023-04-19T04:24:36.672Z,77.94
2023-04-19T04:25:36.709Z,74.78
2023-04-19T04:26:36.721Z,75.03
2023-04-19T04:27:36.726Z,76.88
2023-04-19T04:28:36.763Z,77.62
2023-04-19T04:29:36.798Z,75.00
2023-04-19T04:30:36.862Z,77.37
2023-04-19T04:31:36.871Z,77.37
2023-04-19T04:32:36.889Z,77.33
2023-04-19T04:33:36.857Z,76.89
2023-04-19T04:34:36.855Z,77.19
2023-04-19T04:35:36.831Z,78.16
2023-04-19T04:36:36.859Z,76.75
2023-04-19T04:37:36.853Z,74.33
2023-04-19T04:38:36.904Z,75.58
2023-04-19T04:39:36.877Z,75.46
2023-04-19T04:40:36.878Z,77.07
2023-04-19T04:41:36.840Z,75.76
2023-04-19T04:42:36.826Z,75.25
2023-04-19T04:43:36.843Z,75.81
2023-04-19T04:44:36.846Z,77.04
2023-04-19T04:45:36.877Z,75.35
2023-04-19T04:46:36.843Z,74.09
2023-04-19T04:47:36.938Z,74.11
2023-04-19T04:48:36.945Z,78.04
2023-04-19T04:49:37.001Z,73.90
2023-04-19T04:50:37.017Z,73.76
2023-04-19T04:51:37.024Z,73.15
2023-04-19T04:52:37.022Z,74.53
2023-04-19T04:53:37.016Z,74.31
2023-04-19T04:54:36.999Z,75.76
2023-04-19T04:55:36.986Z,74.86
2023-04-19T04:56:37.050Z,71.95
2023-04-19T04:57:36.988Z,73.96
2023-04-19T04:58:37.035Z,75.02
2023-04-19T04:59:37.113Z,74.90
2023-04-19T05:00:37.149Z,74.95
2023-04-19T05:01:37.233Z,75.11
2023-04-19T05:02:37.275Z,73.49
2023-04-19T05:03:37.327Z,74.29
2023-04-19T05:04:37.374Z,73.65
2023-04-19T05:05:37.420Z,74.61
2023-04-19T05:06:37.533Z,74.68
2023-04-19T05:07:37.509Z,74.16
2023-04-19T05:08:37.558Z,73.34
2023-04-19T05:09:37.630Z,75.68
2023-04-19T05:10:37.684Z,74.74
2023-04-19T05:11:37.679Z,73.34
2023-04-19T05:12:37.670Z,72.87
2023-04-19T05:13:37.704Z,74.81
2023-04-19T05:14:37.711Z,72.93
2023-04-19T05:15:37.709Z,71.89
2023-04-19T05:16:37.786Z,72.21
2023-04-19T05:17:37.786Z,73.74
2023-04-19T05:18:37.666Z,73.90
2023-04-19T05:19:37.685Z,71.02
2023-04-19T05:20:37.742Z,72.71
2023-04-19T05:21:37.796Z,71.76
2023-04-19T05:22:37.854Z,71.94
2023-04-19T05:23:37.847Z,71.73
2023-04-19T05:24:37.848Z,74.83
2023-04-19T05:25:37.892Z,83.13
2023-04-19T05:26:37.832Z,78.50
2023-04-19T05:27:37.840Z,74.29
2023-04-19T05:28:37.877Z,91.33
2023-04-19T05:29:37.913Z,85.14
2023-04-19T05:30:37.940Z,86.87
2023-04-19T05:31:38.007Z,90.30
2023-04-19T05:32:38.073Z,92.26
2023-04-19T05:33:38.021Z,91.46
2023-04-19T05:34:38.041Z,92.43
2023-04-19T05:35:38.062Z,93.84
2023-04-19T05:36:38.093Z,92.94
2023-04-19T05:37:38.135Z,92.89
2023-04-19T05:38:38.135Z,95.24
2023-04-19T05:39:38.150Z,92.49
2023-04-19T05:40:38.170Z,94.27
2023-04-19T05:41:38.188Z,92.33
2023-04-19T05:42:38.219Z,94.12
2023-04-19T05:43:38.243Z,96.03
2023-04-19T05:44:38.264Z,90.76
2023-04-19T05:45:38.293Z,88.01
2023-04-19T05:46:38.387Z,95.67
2023-04-19T05:47:38.361Z,95.06
2023-04-19T05:48:38.341Z,95.64
2023-04-19T05:49:38.366Z,97.17
2023-04-19T05:50:38.378Z,96.61
2023-04-19T05:51:38.397Z,93.41
2023-04-19T05:52:38.413Z,95.73
2023-04-19T05:53:38.434Z,95.58
2023-04-19T05:54:38.443Z,96.78
2023-04-19T05:55:38.454Z,97.60
2023-04-19T05:56:38.484Z,98.05
2023-04-19T05:57:38.545Z,96.43
2023-04-19T05:58:38.520Z,96.11
2023-04-19T05:59:38.562Z,100.01
2023-04-19T06:00:38.574Z,96.14
2023-04-19T06:01:41.529Z,96.57
2023-04-19T06:02:38.643Z,99.54
2023-04-19T06:03:38.688Z,101.50
2023-04-19T06:04:38.591Z,98.32
2023-04-19T06:05:38.449Z,94.56
2023-04-19T06:06:38.372Z,98.34
2023-04-19T06:08:38.314Z,102.48
2023-04-19T06:09:39.250Z,102.62
2023-04-19T06:10:51.765Z,101.11
2023-04-19T06:11:47.423Z,102.52
2023-04-19T06:12:39.169Z,102.80
2023-04-19T06:13:38.159Z,103.25
2023-04-19T06:14:38.088Z,102.51
2023-04-19T06:15:38.042Z,104.09
2023-04-19T06:16:38.074Z,98.19
2023-04-19T06:17:38.034Z,99.63
2023-04-19T06:18:38.915Z,101.27
2023-04-19T06:19:37.879Z,96.57
2023-04-19T06:20:37.840Z,101.61
2023-04-19T06:21:37.790Z,98.95
2023-04-19T06:22:37.750Z,101.20
2023-04-19T06:23:37.750Z,103.74
2023-04-19T06:24:37.683Z,104.63
2023-04-19T06:25:37.641Z,107.17
2023-04-19T06:26:37.591Z,104.52
2023-04-19T06:27:37.546Z,113.04
2023-04-19T06:28:37.501Z,117.33
2023-04-19T06:29:37.479Z,95.44
2023-04-19T06:30:37.433Z,59.59
2023-04-19T06:31:37.393Z,40.45
2023-04-19T06:32:37.424Z,25.53
2023-04-19T06:33:37.328Z,24.09
2023-04-19T06:34:37.289Z,25.00
2023-04-19T06:35:37.262Z,23.28
2023-04-19T06:36:37.230Z,25.00
2023-04-19T06:37:37.197Z,25.00
2023-04-19T06:38:37.165Z,25.00
2023-04-19T06:39:37.250Z,24.33
2023-04-19T06:40:37.996Z,24.26
2023-04-19T06:41:37.081Z,28.22
2023-04-19T06:42:37.102Z,25.00
2023-04-19T06:43:37.083Z,22.60
2023-04-19T06:44:36.991Z,22.97
2023-04-19T06:45:37.236Z,25.00
2023-04-19T06:46:36.953Z,24.78
2023-04-19T06:47:36.983Z,25.00
2023-04-19T06:48:36.945Z,25.79
2023-04-19T06:49:36.960Z,25.95
2023-04-19T06:50:36.948Z,25.41
2023-04-19T06:51:36.952Z,27.30
2023-04-19T06:52:36.958Z,25.00
2023-04-19T06:53:36.956Z,26.77
2023-04-19T06:54:36.966Z,28.76
2023-04-19T06:55:36.974Z,34.94
2023-04-19T06:56:36.973Z,39.50
2023-04-19T06:57:36.961Z,45.45
2023-04-19T06:58:36.944Z,47.73
2023-04-19T06:59:36.907Z,51.35
2023-04-19T07:00:36.924Z,60.62
2023-04-19T07:01:37.186Z,71.14
2023-04-19T07:02:37.127Z,81.05
2023-04-19T07:03:37.088Z,86.41
2023-04-19T07:04:37.610Z,92.96
2023-04-19T07:05:36.982Z,99.31
2023-04-19T07:06:37.064Z,103.12
2023-04-19T07:07:36.946Z,106.05
2023-04-19T07:08:49.443Z,108.25
2023-04-19T07:09:37.875Z,108.65
2023-04-19T07:10:36.826Z,110.01
2023-04-19T07:11:36.789Z,111.42
2023-04-19T07:12:36.724Z,117.36
2023-04-19T07:13:36.674Z,125.45
2023-04-19T07:14:36.634Z,129.36
2023-04-19T07:15:37.037Z,135.67
2023-04-19T07:16:36.539Z,135.71
2023-04-19T07:17:36.622Z,134.90
2023-04-19T07:18:36.443Z,137.96
2023-04-19T07:19:36.407Z,142.31
2023-04-19T07:20:36.348Z,145.47
2023-04-19T07:21:36.292Z,148.18
2023-04-19T07:22:36.244Z,152.46
2023-04-19T07:23:36.200Z,158.21
2023-04-19T07:24:39.018Z,160.72
2023-04-19T07:25:36.076Z,164.95
2023-04-19T07:26:36.026Z,167.15
2023-04-19T07:27:35.995Z,171.16
2023-04-19T07:28:36.011Z,175.45
2023-04-19T07:29:35.873Z,180.00
2023-04-19T07:30:35.826Z,185.19
2023-04-19T07:31:35.767Z,188.47
2023-04-19T07:32:35.879Z,194.24
2023-04-19T07:33:35.876Z,198.32
2023-04-19T07:34:35.593Z,200.00
2023-04-19T07:35:35.541Z,201.72
2023-04-19T07:36:35.519Z,206.08
2023-04-19T07:37:35.414Z,208.36
2023-04-19T07:38:35.365Z,211.91
2023-04-19T07:39:35.324Z,213.76
2023-04-19T07:40:35.281Z,218.22
2023-04-19T07:41:36.212Z,220.50
2023-04-19T07:42:35.159Z,224.49
2023-04-19T07:43:35.111Z,227.23
2023-04-19T07:44:35.052Z,229.22
2023-04-19T07:45:34.999Z,231.96
2023-04-19T07:46:34.941Z,232.16
2023-04-19T07:47:34.885Z,234.27
2023-04-19T07:48:34.819Z,238.66
2023-04-19T07:49:34.854Z,241.03
2023-04-19T07:50:34.713Z,244.47
2023-04-19T07:51:34.637Z,251.18
2023-04-19T07:52:34.596Z,246.03
2023-04-19T07:53:34.519Z,244.91
2023-04-19T07:54:34.468Z,246.62
2023-04-19T07:55:34.412Z,247.87
2023-04-19T07:56:34.361Z,249.40
2023-04-19T07:57:34.277Z,249.92
2023-04-19T07:58:34.235Z,249.15
2023-04-19T07:59:34.152Z,249.21
2023-04-19T08:00:34.109Z,249.65
2023-04-19T08:01:34.132Z,249.11
2023-04-19T08:02:34.186Z,250.00
2023-04-19T08:03:34.085Z,249.48
2023-04-19T08:04:34.090Z,249.47
2023-04-19T08:05:34.141Z,250.00
2023-04-19T08:06:33.727Z,248.62
2023-04-19T08:07:33.659Z,249.70
2023-04-19T08:08:34.218Z,249.66
2023-04-19T08:09:33.699Z,250.00
2023-04-19T08:10:33.474Z,249.93
2023-04-19T08:11:33.404Z,249.51
2023-04-19T08:12:39.341Z,249.64
2023-04-19T08:13:34.272Z,249.71
2023-04-19T08:14:43.929Z,250.03
2023-04-19T08:17:14.166Z,233.09
2023-04-19T08:17:41.393Z,240.53
2023-04-19T08:18:34.006Z,247.84
2023-04-19T08:19:32.932Z,238.55
2023-04-19T08:20:32.866Z,231.37
2023-04-19T08:21:40.568Z,226.74
2023-04-19T08:22:33.746Z,230.40
2023-04-19T08:23:45.026Z,225.08
2023-04-19T08:24:33.635Z,224.82
2023-04-19T08:25:32.566Z,221.59
2023-04-19T08:26:32.524Z,221.63
2023-04-19T08:27:32.457Z,220.25
2023-04-19T08:28:32.380Z,221.53
2023-04-19T08:29:32.329Z,225.05
2023-04-19T08:30:32.272Z,224.12
2023-04-19T08:31:32.234Z,222.71
2023-04-19T08:32:32.226Z,223.03
2023-04-19T08:33:32.107Z,223.06
2023-04-19T08:34:32.036Z,224.22
2023-04-19T08:35:31.992Z,230.95
2023-04-19T08:36:41.154Z,230.91
2023-04-19T08:37:32.862Z,231.05
2023-04-19T08:38:31.886Z,231.04
2023-04-19T08:39:33.413Z,231.13
2023-04-19T08:40:31.873Z,231.13
2023-04-19T08:41:31.823Z,230.48
2023-04-19T08:42:36.473Z,230.74
2023-04-19T08:43:32.711Z,230.83
2023-04-19T08:44:36.408Z,231.18
2023-04-19T08:45:32.592Z,230.93
2023-04-19T08:46:31.568Z,231.35
2023-04-19T08:47:34.056Z,232.11
2023-04-19T08:48:31.440Z,233.47
2023-04-19T08:49:31.342Z,234.57
2023-04-19T08:50:34.389Z,234.89
2023-04-19T08:51:32.205Z,235.11
2023-04-19T08:52:31.146Z,235.71
2023-04-19T08:53:31.073Z,236.33
2023-04-19T08:54:31.004Z,236.81
2023-04-19T08:55:30.959Z,238.44
2023-04-19T08:56:35.626Z,238.59
2023-04-19T08:57:31.782Z,238.77
2023-04-19T08:58:45.832Z,238.97
2023-04-19T08:59:31.655Z,238.73
2023-04-19T09:00:30.593Z,239.04
2023-04-19T09:01:36.064Z,239.56
2023-04-19T09:02:31.807Z,238.81
2023-04-19T09:03:30.512Z,239.29
2023-04-19T09:04:37.054Z,239.83
2023-04-19T09:05:31.387Z,238.83
2023-04-19T09:06:30.278Z,240.08
2023-04-19T09:07:30.134Z,241.84
2023-04-19T09:08:30.078Z,243.56
2023-04-19T09:10:29.936Z,246.09
2023-04-19T09:11:29.861Z,247.88
2023-04-19T09:12:29.787Z,248.14
2023-04-19T09:13:29.733Z,249.49
2023-04-19T09:14:29.760Z,249.17
2023-04-19T09:15:29.629Z,248.36
2023-04-19T09:16:29.517Z,250.00
2023-04-19T09:17:29.510Z,249.28
2023-04-19T09:18:31.385Z,249.17
2023-04-19T09:19:29.563Z,249.22
2023-04-19T09:20:29.269Z,248.79
2023-04-19T09:21:29.176Z,247.16
2023-04-19T09:22:29.109Z,245.03
2023-04-19T09:23:29.041Z,243.99
2023-04-19T09:26:28.862Z,241.78
2023-04-19T09:27:28.826Z,241.72
2023-04-19T09:28:28.747Z,240.72
2023-04-19T09:29:28.699Z,239.72
2023-04-19T09:30:33.950Z,238.29
2023-04-19T09:31:47.894Z,241.75
2023-04-19T09:32:29.598Z,241.77
2023-04-19T09:33:28.565Z,241.59
2023-04-19T09:34:28.380Z,237.69
2023-04-19T09:35:28.319Z,235.62
2023-04-19T09:36:28.248Z,235.02
2023-04-19T09:37:51.433Z,233.73
2023-04-19T09:38:29.135Z,233.84
2023-04-19T09:39:28.082Z,233.85
2023-04-19T09:40:28.231Z,231.94
2023-04-19T09:41:27.967Z,230.92
2023-04-19T09:43:57.895Z,230.53
2023-04-19T09:45:30.213Z,230.61
2023-04-19T09:46:27.667Z,230.63
2023-04-19T09:47:27.613Z,230.56
2023-04-19T09:48:27.585Z,229.24
2023-04-19T09:49:45.672Z,228.35
2023-04-19T09:50:28.775Z,230.63
2023-04-19T09:51:27.347Z,230.69
2023-04-19T09:52:27.296Z,228.61
2023-04-19T09:53:27.227Z,227.17
2023-04-19T09:54:27.177Z,226.69
2023-04-19T09:55:28.843Z,228.36
2023-04-19T09:56:27.067Z,227.86
2023-04-19T09:57:27.162Z,225.16
2023-04-19T09:58:34.456Z,225.79
2023-04-19T09:59:27.907Z,225.95
2023-04-19T10:00:28.328Z,226.01
2023-04-19T10:01:26.912Z,225.92
2023-04-19T10:02:26.869Z,225.63
2023-04-19T10:03:26.762Z,225.01
2023-04-19T10:04:38.212Z,223.50
2023-04-19T10:05:27.676Z,225.85
2023-04-19T10:06:45.621Z,224.91
2023-04-19T10:07:30.572Z,225.84
2023-04-19T10:08:26.416Z,225.90
2023-04-19T10:09:26.361Z,224.64
2023-04-19T10:11:26.320Z,222.42
2023-04-19T10:13:26.969Z,221.30
2023-04-19T10:14:26.997Z,222.99
2023-04-19T10:15:28.003Z,223.62
2023-04-19T10:16:27.035Z,223.72
2023-04-19T10:17:25.971Z,223.59
2023-04-19T10:18:25.910Z,222.92
2023-04-19T10:19:25.874Z,221.21
2023-04-19T10:20:25.815Z,220.64
2023-04-19T10:21:25.766Z,219.95
2023-04-19T10:22:26.508Z,220.23
2023-04-19T10:23:26.584Z,220.12
2023-04-19T10:24:25.685Z,217.79
2023-04-19T10:25:25.561Z,217.61
2023-04-19T10:26:25.512Z,217.07
2023-04-19T10:27:26.120Z,216.85
2023-04-19T10:28:26.602Z,216.99
2023-04-19T10:29:25.628Z,217.41
2023-04-19T10:30:25.602Z,217.41
2023-04-19T10:31:25.646Z,217.11
2023-04-19T10:32:25.643Z,217.69
2023-04-19T10:33:25.591Z,217.31
2023-04-19T10:34:25.578Z,216.88
2023-04-19T10:35:25.534Z,215.85
2023-04-19T10:36:25.518Z,215.94
2023-04-19T10:37:25.515Z,215.95
2023-04-19T10:38:25.469Z,215.76
2023-04-19T10:39:26.085Z,215.81
2023-04-19T10:40:25.380Z,215.01
2023-04-19T10:41:25.350Z,214.48
2023-04-19T10:42:25.340Z,213.74
2023-04-19T10:43:25.327Z,213.26
2023-04-19T10:44:25.279Z,213.06
2023-04-19T10:45:25.380Z,214.54
2023-04-19T10:46:25.194Z,213.35
2023-04-19T10:47:25.150Z,215.51
2023-04-19T10:48:25.071Z,212.74
2023-04-19T10:49:25.049Z,213.34
2023-04-19T10:50:24.996Z,214.28
2023-04-19T10:51:24.982Z,211.75
2023-04-19T10:52:24.950Z,211.65
2023-04-19T10:53:24.923Z,212.42
2023-04-19T10:54:24.893Z,213.39
2023-04-19T10:55:24.824Z,211.44
2023-04-19T10:56:24.773Z,209.66
2023-04-19T10:57:24.749Z,209.29
2023-04-19T10:58:24.718Z,208.88
2023-04-19T10:59:24.665Z,209.73
2023-04-19T11:00:24.595Z,208.49
2023-04-19T11:01:24.591Z,207.82
2023-04-19T11:02:24.677Z,207.84
2023-04-19T11:03:24.613Z,208.63
2023-04-19T11:04:24.513Z,207.07
2023-04-19T11:05:24.382Z,207.12
2023-04-19T11:06:24.368Z,207.92
2023-04-19T11:07:24.438Z,207.87
2023-04-19T11:08:24.261Z,206.65
2023-04-19T11:09:24.240Z,205.35
2023-04-19T11:10:24.182Z,206.34
2023-04-19T11:11:24.144Z,206.83
2023-04-19T11:12:24.127Z,204.89
2023-04-19T11:13:24.071Z,208.20
2023-04-19T11:14:24.065Z,203.86
2023-04-19T11:15:24.026Z,205.46
2023-04-19T11:16:31.196Z,204.08
2023-04-19T11:17:25.021Z,204.23
2023-04-19T11:18:23.917Z,204.13
2023-04-19T11:19:23.851Z,204.46
2023-04-19T11:20:23.794Z,202.84
2023-04-19T11:21:23.747Z,202.56
2023-04-19T11:22:23.688Z,202.25
2023-04-19T11:23:23.638Z,202.32
2023-04-19T11:24:23.597Z,201.40
2023-04-19T11:25:23.585Z,202.54
2023-04-19T11:26:23.505Z,201.25
2023-04-19T11:27:23.449Z,199.99
2023-04-19T11:28:23.404Z,201.31
2023-04-19T11:29:23.358Z,201.50
2023-04-19T11:30:23.386Z,203.22
2023-04-19T11:31:23.297Z,201.16
2023-04-19T11:32:23.347Z,200.32
2023-04-19T11:33:23.222Z,198.71
2023-04-19T11:34:23.225Z,199.99
2023-04-19T11:35:23.098Z,198.41
2023-04-19T11:36:23.041Z,199.32
2023-04-19T11:37:23.003Z,197.88
2023-04-19T11:38:22.951Z,200.18
2023-04-19T11:39:22.916Z,196.92
2023-04-19T11:40:22.870Z,196.74
2023-04-19T11:41:22.847Z,197.49
2023-04-19T11:42:22.783Z,198.18
2023-04-19T11:43:22.752Z,198.97
2023-04-19T11:44:22.709Z,197.10
2023-04-19T11:45:29.520Z,195.86
2023-04-19T11:46:23.636Z,195.98
2023-04-19T11:47:22.624Z,196.44
2023-04-19T11:48:22.546Z,195.90
2023-04-19T11:49:22.519Z,195.95
2023-04-19T11:50:22.468Z,196.37
2023-04-19T11:51:22.406Z,195.88
2023-04-19T11:52:22.412Z,196.97
2023-04-19T11:53:22.348Z,196.29
2023-04-19T11:54:22.295Z,195.33
2023-04-19T11:55:22.249Z,194.30
2023-04-19T11:56:22.208Z,195.76
2023-04-19T11:57:22.141Z,196.65
2023-04-19T11:58:22.103Z,195.06
2023-04-19T11:59:22.062Z,193.92
2023-04-19T12:00:22.010Z,193.78
2023-04-19T12:01:21.982Z,192.98
2023-04-19T12:02:22.043Z,193.96
2023-04-19T12:03:23.279Z,195.52
2023-04-19T12:04:22.145Z,195.53
2023-04-19T12:05:21.957Z,195.51
2023-04-19T12:06:21.737Z,193.89
2023-04-19T12:07:21.698Z,191.58
2023-04-19T12:08:21.647Z,191.22
2023-04-19T12:09:23.925Z,192.30
2023-04-19T12:10:21.671Z,192.25
2023-04-19T12:11:21.646Z,192.71
2023-04-19T12:12:21.606Z,191.54
2023-04-19T12:13:21.576Z,191.03
2023-04-19T12:14:21.553Z,188.02
2023-04-19T12:15:23.959Z,190.44
2023-04-19T12:16:21.495Z,190.97
2023-04-19T12:17:21.439Z,191.87
2023-04-19T12:18:21.481Z,189.12
2023-04-19T12:19:21.345Z,191.02
2023-04-19T12:20:21.286Z,187.83
2023-04-19T12:21:21.248Z,187.66
2023-04-19T12:22:21.192Z,188.36
2023-04-19T12:23:21.146Z,187.30
2023-04-19T12:24:21.115Z,185.43
2023-04-19T12:25:21.073Z,187.38
2023-04-19T12:26:21.030Z,188.42
2023-04-19T12:27:21.145Z,189.19
2023-04-19T12:28:20.945Z,185.91
2023-04-19T12:29:20.900Z,186.94
2023-04-19T12:30:20.865Z,189.20
2023-04-19T12:31:20.877Z,185.20
2023-04-19T12:32:20.865Z,185.33
2023-04-19T12:33:22.223Z,185.28
2023-04-19T12:34:20.923Z,185.37
2023-04-19T12:35:20.865Z,185.17
2023-04-19T12:36:20.852Z,184.87
2023-04-19T12:37:20.827Z,187.64
2023-04-19T12:38:20.805Z,183.10
2023-04-19T12:39:20.764Z,184.39
2023-04-19T12:40:20.753Z,181.48
2023-04-19T12:41:20.720Z,182.82
2023-04-19T12:42:20.695Z,182.72
2023-04-19T12:43:20.666Z,184.00
2023-04-19T12:44:20.653Z,182.03
2023-04-19T12:45:20.638Z,182.87
2023-04-19T12:46:20.673Z,181.45
2023-04-19T12:47:20.600Z,186.71
2023-04-19T12:48:20.556Z,182.03
2023-04-19T12:49:20.540Z,184.66
2023-04-19T12:50:20.513Z,181.77